Time;durP1;ratioP1;P1;durP2;ratioP2;P2;SDS_P1;SDS_P2;PMS_P1;PMS_P2;Temp;Humidity;BMP_temperature;BMP_pressure;BME280_temperature;BME280_humidity;BME280_pressure;Samples;Min_cycle;Max_cycle;Signal;HPM_P1;HPM_P2
2022/04/12 00:01:33;;;;;;;;;;;12.30;95.50;;;;;;4315790;33;43400;-80
2022/04/12 00:04:00;;;;;;;;;;;12.30;95.70;;;;;;4302978;33;44859;-80
2022/04/12 00:06:28;;;;;;;;;;;12.30;95.60;;;;;;4302345;33;43813;-79
2022/04/12 00:08:55;;;;;;;;;;;12.30;95.80;;;;;;4315345;33;42660;-80
2022/04/12 00:11:22;;;;;;;;;;;12.30;95.70;;;;;;4302652;33;44626;-80
2022/04/12 00:13:49;;;;;;;;;;;12.30;95.60;;;;;;4302741;33;43226;-80
2022/04/12 00:16:16;;;;;;;;;;;12.30;95.80;;;;;;4302511;33;43980;-80
2022/04/12 00:21:34;;;;;;;;;;;12.30;96.00;;;;;;4315445;33;44260;-80
2022/04/12 00:24:05;;;;;;;;;;;12.30;96.10;;;;;;4315327;33;42769;-80
2022/04/12 00:26:32;;;;;;;;;;;12.30;96.40;;;;;;4302945;33;43997;-80
2022/04/12 00:29:00;;;;;;;;;;;12.30;96.40;;;;;;4302437;33;43746;-80
2022/04/12 00:31:27;;;;;;;;;;;12.20;96.50;;;;;;4302242;33;43763;-79
2022/04/12 00:33:54;;;;;;;;;;;12.20;96.50;;;;;;4315637;33;42702;-79
2022/04/12 00:36:21;;;;;;;;;;;12.20;97.00;;;;;;4302139;33;43476;-80
2022/04/12 00:38:48;;;;;;;;;;;12.20;96.70;;;;;;4315676;33;43189;-79
2022/04/12 00:41:15;;;;;;;;;;;12.20;95.80;;;;;;4302074;33;43909;-79
2022/04/12 00:43:42;;;;;;;;;;;12.30;95.70;;;;;;4315662;33;44072;-80
2022/04/12 00:46:10;;;;;;;;;;;12.20;95.50;;;;;;4302504;33;44148;-79
2022/04/12 00:48:37;;;;;;;;;;;12.20;95.80;;;;;;4315085;33;42326;-79
2022/04/12 00:51:05;;;;;;;;;;;12.20;95.80;;;;;;4303512;33;43853;-80
2022/04/12 00:53:32;;;;;;;;;;;12.20;95.50;;;;;;4304835;33;42751;-79
2022/04/12 00:56:00;;;;;;;;;;;12.20;96.10;;;;;;4318005;33;43640;-79
2022/04/12 00:58:27;;;;;;;;;;;12.20;96.10;;;;;;4304901;33;42716;-79
2022/04/12 01:00:54;;;;;;;;;;;12.20;95.80;;;;;;4318144;33;43889;-79
2022/04/12 01:03:21;;;;;;;;;;;12.20;95.90;;;;;;4317589;33;43196;-79
2022/04/12 01:05:49;;;;;;;;;;;12.20;95.90;;;;;;4304568;33;43962;-80
2022/04/12 01:08:17;;;;;;;;;;;12.20;96.00;;;;;;4304619;33;44084;-79
2022/04/12 01:10:45;;;;;;;;;;;12.20;95.60;;;;;;4317542;33;44287;-80
2022/04/12 01:13:13;;;;;;;;;;;12.20;95.50;;;;;;4317801;33;43326;-80
2022/04/12 01:15:42;;;;;;;;;;;12.20;95.80;;;;;;4304858;33;43960;-81
2022/04/12 01:18:13;;;;;;;;;;;12.20;95.60;;;;;;4318205;33;43408;-80
2022/04/12 01:20:40;;;;;;;;;;;12.20;95.20;;;;;;4304361;33;43738;-80
2022/04/12 01:23:12;;;;;;;;;;;12.20;95.60;;;;;;4304454;33;43313;-80
2022/04/12 01:25:39;;;;;;;;;;;12.20;95.50;;;;;;4317876;33;44531;-80
2022/04/12 01:28:07;;;;;;;;;;;12.20;95.10;;;;;;4304174;33;44287;-81
2022/04/12 01:30:34;;;;;;;;;;;12.20;95.80;;;;;;4317610;33;44244;-81
2022/04/12 01:33:01;;;;;;;;;;;12.20;95.50;;;;;;4304165;33;46179;-82
2022/04/12 01:35:28;;;;;;;;;;;12.20;95.80;;;;;;4304072;33;43039;-81
2022/04/12 01:37:56;;;;;;;;;;;12.20;95.80;;;;;;4317476;33;42704;-82
2022/04/12 01:40:23;;;;;;;;;;;12.20;95.70;;;;;;4304539;33;43106;-81
2022/04/12 01:42:52;;;;;;;;;;;12.10;95.50;;;;;;4304499;33;44223;-81
2022/04/12 01:45:21;;;;;;;;;;;12.10;95.40;;;;;;4303957;33;44220;-81
2022/04/12 01:47:48;;;;;;;;;;;12.10;95.70;;;;;;4316971;33;44965;-81
2022/04/12 01:50:15;;;;;;;;;;;12.10;96.00;;;;;;4304152;33;43471;-81
2022/04/12 01:52:42;;;;;;;;;;;12.10;96.20;;;;;;4317233;33;45168;-81
2022/04/12 01:55:10;;;;;;;;;;;12.10;96.10;;;;;;4303909;33;42959;-81
2022/04/12 01:57:37;;;;;;;;;;;12.10;96.00;;;;;;4304271;33;43481;-81
2022/04/12 02:00:05;;;;;;;;;;;12.10;96.50;;;;;;4316857;33;44174;-80
2022/04/12 02:02:32;;;;;;;;;;;12.10;96.00;;;;;;4316651;33;43284;-82
2022/04/12 02:04:59;;;;;;;;;;;12.10;96.70;;;;;;4303790;33;42663;-81
2022/04/12 02:07:26;;;;;;;;;;;12.10;96.70;;;;;;4303560;33;44275;-81
2022/04/12 02:09:53;;;;;;;;;;;12.10;96.50;;;;;;4316724;33;43490;-82
2022/04/12 02:12:21;;;;;;;;;;;12.10;96.60;;;;;;4316998;33;43371;-82
2022/04/12 02:14:49;;;;;;;;;;;12.10;96.50;;;;;;4303560;33;44336;-82
2022/04/12 02:17:16;;;;;;;;;;;12.10;96.40;;;;;;4303663;33;41887;-82
2022/04/12 02:19:43;;;;;;;;;;;12.00;96.40;;;;;;4316576;33;45694;-82
2022/04/12 02:22:10;;;;;;;;;;;12.10;96.80;;;;;;4316641;33;42332;-82
2022/04/12 02:24:37;;;;;;;;;;;12.10;96.50;;;;;;4303889;33;44323;-84
2022/04/12 02:27:04;;;;;;;;;;;12.10;96.40;;;;;;4316992;33;44588;-83
2022/04/12 02:29:31;;;;;;;;;;;12.10;96.70;;;;;;4316469;33;42287;-82
2022/04/12 02:31:58;;;;;;;;;;;12.10;96.00;;;;;;4303453;33;44251;-82
2022/04/12 02:34:25;;;;;;;;;;;12.10;96.20;;;;;;4316351;33;44575;-82
2022/04/12 02:36:52;;;;;;;;;;;12.10;96.30;;;;;;4316620;33;43918;-82
2022/04/12 02:39:19;;;;;;;;;;;12.10;96.50;;;;;;4303438;33;43549;-82
2022/04/12 02:41:46;;;;;;;;;;;12.10;96.30;;;;;;4303609;33;43173;-83
2022/04/12 02:44:13;;;;;;;;;;;12.10;96.20;;;;;;4316306;33;42535;-82
2022/04/12 02:46:40;;;;;;;;;;;12.00;96.00;;;;;;4303237;33;43477;-82
2022/04/12 02:49:08;;;;;;;;;;;12.00;96.00;;;;;;4303610;33;43402;-82
2022/04/12 02:51:35;;;;;;;;;;;12.00;96.30;;;;;;4303548;33;44304;-81
2022/04/12 02:54:02;;;;;;;;;;;12.00;96.30;;;;;;4316058;33;43730;-82
2022/04/12 02:56:29;;;;;;;;;;;12.00;96.20;;;;;;4303033;33;44326;-82
2022/04/12 02:58:56;;;;;;;;;;;12.10;96.50;;;;;;4302880;33;42304;-81
2022/04/12 03:01:23;;;;;;;;;;;12.00;96.20;;;;;;4302902;33;43835;-81
2022/04/12 03:03:50;;;;;;;;;;;12.00;96.80;;;;;;4316265;33;42777;-81
2022/04/12 03:06:17;;;;;;;;;;;12.00;96.60;;;;;;4316406;33;43482;-81
2022/04/12 03:08:44;;;;;;;;;;;12.00;96.50;;;;;;4302786;33;42938;-81
2022/04/12 03:11:11;;;;;;;;;;;12.00;96.20;;;;;;4316358;33;43477;-81
2022/04/12 03:13:39;;;;;;;;;;;12.00;96.60;;;;;;4315491;33;44152;-81
2022/04/12 03:16:06;;;;;;;;;;;12.00;96.60;;;;;;4303328;33;43454;-80
2022/04/12 03:18:33;;;;;;;;;;;12.00;96.50;;;;;;4302997;33;44623;-80
2022/04/12 03:21:00;;;;;;;;;;;12.00;96.30;;;;;;4315711;33;42912;-80
2022/04/12 03:23:27;;;;;;;;;;;12.00;96.30;;;;;;4303060;33;42933;-80
2022/04/12 03:25:54;;;;;;;;;;;11.90;96.40;;;;;;4316314;33;44239;-81
2022/04/12 03:28:21;;;;;;;;;;;12.00;96.40;;;;;;4316318;33;44287;-80
2022/04/12 03:30:48;;;;;;;;;;;11.90;96.50;;;;;;4302854;33;43519;-80
2022/04/12 03:33:15;;;;;;;;;;;11.90;96.20;;;;;;4316263;33;43275;-80
2022/04/12 03:35:43;;;;;;;;;;;11.90;96.40;;;;;;4315960;33;44084;-81
2022/04/12 03:38:10;;;;;;;;;;;12.00;96.70;;;;;;4302579;33;43565;-80
2022/04/12 03:40:37;;;;;;;;;;;11.90;96.40;;;;;;4302437;33;43959;-80
2022/04/12 03:43:05;;;;;;;;;;;11.90;96.50;;;;;;4302677;33;43890;-80
2022/04/12 03:45:32;;;;;;;;;;;11.90;96.30;;;;;;4302635;33;44140;-80
2022/04/12 03:48:00;;;;;;;;;;;11.90;96.80;;;;;;4302356;33;45490;-81
2022/04/12 03:50:27;;;;;;;;;;;11.90;96.50;;;;;;4315879;33;44786;-81
2022/04/12 03:52:54;;;;;;;;;;;11.90;96.50;;;;;;4302768;33;45573;-81
2022/04/12 03:55:30;;;;;;;;;;;11.90;96.80;;;;;;4315907;33;43961;-80
2022/04/12 03:57:57;;;;;;;;;;;11.90;96.90;;;;;;4302720;33;43842;-80
2022/04/12 04:00:25;;;;;;;;;;;11.90;96.90;;;;;;4302568;33;42943;-80
2022/04/12 04:02:52;;;;;;;;;;;11.90;96.70;;;;;;4299927;33;43535;-80
2022/04/12 04:05:20;;;;;;;;;;;11.90;97.00;;;;;;4300200;33;46035;-80
2022/04/12 04:07:47;;;;;;;;;;;11.90;97.20;;;;;;4300824;33;43874;-80
2022/04/12 04:10:14;;;;;;;;;;;11.90;96.80;;;;;;4299781;33;44154;-80
2022/04/12 04:12:42;;;;;;;;;;;11.90;97.00;;;;;;4300807;33;44226;-80
2022/04/12 04:15:13;;;;;;;;;;;11.90;97.20;;;;;;4300843;33;43369;-80
2022/04/12 04:17:43;;;;;;;;;;;11.90;97.00;;;;;;4299753;33;44383;-80
2022/04/12 04:20:11;;;;;;;;;;;11.90;97.20;;;;;;4301254;33;43889;-81
2022/04/12 04:22:40;;;;;;;;;;;11.90;97.20;;;;;;4299779;33;43482;-81
2022/04/12 04:25:08;;;;;;;;;;;11.90;97.60;;;;;;4301779;33;43244;-81
2022/04/12 04:27:36;;;;;;;;;;;11.90;96.90;;;;;;4303569;33;46163;-81
2022/04/12 04:30:04;;;;;;;;;;;11.90;97.30;;;;;;4303641;33;43749;-80
2022/04/12 04:32:31;;;;;;;;;;;11.90;97.30;;;;;;4303473;33;43370;-81
2022/04/12 04:34:58;;;;;;;;;;;11.90;97.60;;;;;;4302679;33;42862;-81
2022/04/12 04:37:26;;;;;;;;;;;11.90;97.70;;;;;;4304102;33;43472;-80
2022/04/12 04:39:53;;;;;;;;;;;11.90;97.20;;;;;;4303348;33;42914;-80
2022/04/12 04:42:20;;;;;;;;;;;11.90;97.70;;;;;;4302699;33;45360;-80
2022/04/12 04:44:47;;;;;;;;;;;11.90;97.50;;;;;;4303387;33;44004;-80
2022/04/12 04:47:15;;;;;;;;;;;11.90;97.70;;;;;;4303287;33;43859;-80
2022/04/12 04:49:42;;;;;;;;;;;11.90;97.70;;;;;;4302397;33;43310;-81
2022/04/12 04:52:09;;;;;;;;;;;11.90;97.90;;;;;;4302544;33;42219;-80
2022/04/12 04:54:36;;;;;;;;;;;11.90;97.50;;;;;;4302575;33;44477;-80
2022/04/12 04:57:03;;;;;;;;;;;11.90;97.60;;;;;;4303195;33;43171;-80
2022/04/12 04:59:30;;;;;;;;;;;11.90;97.60;;;;;;4302483;33;43867;-80
2022/04/12 05:01:57;;;;;;;;;;;11.90;97.10;;;;;;4306695;33;43196;-80
2022/04/12 05:04:24;;;;;;;;;;;11.90;97.10;;;;;;4304769;33;43963;-79
2022/04/12 05:06:51;;;;;;;;;;;11.90;97.60;;;;;;4317578;33;42999;-80
2022/04/12 05:09:18;;;;;;;;;;;11.90;97.40;;;;;;4304969;33;45632;-79
2022/04/12 05:11:45;;;;;;;;;;;11.90;97.20;;;;;;4304500;33;44093;-80
2022/04/12 05:14:12;;;;;;;;;;;11.80;97.30;;;;;;4318004;33;45464;-79
2022/04/12 05:16:39;;;;;;;;;;;11.80;97.50;;;;;;4304562;33;43191;-79
2022/04/12 05:19:06;;;;;;;;;;;11.80;97.70;;;;;;4304502;33;43296;-79
2022/04/12 05:21:34;;;;;;;;;;;11.80;97.50;;;;;;4304689;33;46165;-79
2022/04/12 05:24:01;;;;;;;;;;;11.80;97.40;;;;;;4317706;33;44003;-79
2022/04/12 05:26:28;;;;;;;;;;;11.80;98.40;;;;;;4317784;33;43240;-80
2022/04/12 05:28:55;;;;;;;;;;;11.80;97.50;;;;;;4304209;33;42512;-79
2022/04/12 05:31:22;;;;;;;;;;;11.80;98.10;;;;;;4304715;33;45766;-79
2022/04/12 05:33:50;;;;;;;;;;;11.80;97.80;;;;;;4304694;33;44216;-79
2022/04/12 05:36:17;;;;;;;;;;;11.80;98.10;;;;;;4303870;33;44201;-81
2022/04/12 05:38:44;;;;;;;;;;;11.80;97.50;;;;;;4317586;33;42996;-79
2022/04/12 05:41:11;;;;;;;;;;;11.80;98.10;;;;;;4304360;33;44974;-79
2022/04/12 05:43:38;;;;;;;;;;;11.80;98.00;;;;;;4304498;33;43185;-79
2022/04/12 05:46:06;;;;;;;;;;;11.80;98.20;;;;;;4304566;33;44158;-79
2022/04/12 05:48:33;;;;;;;;;;;11.80;97.60;;;;;;4317505;33;44269;-80
2022/04/12 05:51:00;;;;;;;;;;;11.80;98.20;;;;;;4304093;33;45711;-79
2022/04/12 05:53:28;;;;;;;;;;;11.80;98.10;;;;;;4317411;33;45749;-80
2022/04/12 05:55:55;;;;;;;;;;;11.80;98.10;;;;;;4303768;33;44347;-79
2022/04/12 05:58:22;;;;;;;;;;;11.80;98.20;;;;;;4304209;33;42392;-80
2022/04/12 06:00:49;;;;;;;;;;;11.80;98.00;;;;;;4303911;33;45336;-80
2022/04/12 06:03:16;;;;;;;;;;;11.80;98.10;;;;;;4303912;33;43232;-79
2022/04/12 06:05:44;;;;;;;;;;;11.80;98.50;;;;;;4317053;33;43468;-79
2022/04/12 06:08:11;;;;;;;;;;;11.80;98.10;;;;;;4303654;33;44299;-79
2022/04/12 06:10:38;;;;;;;;;;;11.80;98.40;;;;;;4303586;33;44112;-80
2022/04/12 06:13:05;;;;;;;;;;;11.80;98.50;;;;;;4317087;33;44170;-79
2022/04/12 06:15:32;;;;;;;;;;;11.80;98.20;;;;;;4304123;33;43873;-79
2022/04/12 06:18:06;;;;;;;;;;;11.80;98.80;;;;;;4304431;33;42594;-79
2022/04/12 06:20:33;;;;;;;;;;;11.80;98.40;;;;;;4316517;33;42878;-80
2022/04/12 06:23:00;;;;;;;;;;;11.80;98.60;;;;;;4317048;33;44282;-81
2022/04/12 06:25:27;;;;;;;;;;;11.80;98.80;;;;;;4317014;33;43605;-80
2022/04/12 06:27:55;;;;;;;;;;;11.80;98.70;;;;;;4303358;33;45818;-80
2022/04/12 06:30:22;;;;;;;;;;;11.80;98.90;;;;;;4303445;33;44858;-79
2022/04/12 06:32:50;;;;;;;;;;;11.80;98.60;;;;;;4303868;33;43525;-80
2022/04/12 06:35:17;;;;;;;;;;;11.80;98.90;;;;;;4303581;33;44916;-80
2022/04/12 06:37:44;;;;;;;;;;;11.80;98.80;;;;;;4303735;33;44037;-80
2022/04/12 06:40:13;;;;;;;;;;;11.80;98.50;;;;;;4316223;33;43482;-80
2022/04/12 06:42:40;;;;;;;;;;;11.90;98.60;;;;;;4316428;33;44017;-80
2022/04/12 06:45:08;;;;;;;;;;;11.80;98.60;;;;;;4303345;33;44075;-81
2022/04/12 06:47:35;;;;;;;;;;;11.90;98.80;;;;;;4302735;33;43770;-80
2022/04/12 06:50:03;;;;;;;;;;;11.90;98.70;;;;;;4316369;33;44435;-80
2022/04/12 06:52:30;;;;;;;;;;;11.80;98.90;;;;;;4303490;33;44061;-81
2022/04/12 06:54:58;;;;;;;;;;;11.90;98.60;;;;;;4316209;33;44162;-80
2022/04/12 06:57:25;;;;;;;;;;;11.90;98.90;;;;;;4316596;33;44098;-80
2022/04/12 06:59:52;;;;;;;;;;;11.90;99.00;;;;;;4303539;33;43423;-79
2022/04/12 07:02:19;;;;;;;;;;;11.90;99.00;;;;;;4302564;33;44741;-81
2022/04/12 07:04:46;;;;;;;;;;;11.90;99.20;;;;;;4316418;33;43903;-81
2022/04/12 07:07:13;;;;;;;;;;;11.90;99.20;;;;;;4303135;33;45005;-81
2022/04/12 07:09:40;;;;;;;;;;;11.90;99.10;;;;;;4316025;33;45210;-81
2022/04/12 07:12:08;;;;;;;;;;;12.00;99.50;;;;;;4316429;33;45486;-81
2022/04/12 07:14:35;;;;;;;;;;;11.90;99.40;;;;;;4302811;33;43977;-80
2022/04/12 07:17:03;;;;;;;;;;;11.90;99.90;;;;;;4316113;33;44797;-80
2022/04/12 07:19:30;;;;;;;;;;;12.00;99.80;;;;;;4315740;33;45789;-81
2022/04/12 07:21:57;;;;;;;;;;;12.00;99.70;;;;;;4302620;33;42735;-81
2022/04/12 07:24:25;;;;;;;;;;;12.00;99.80;;;;;;4303131;33;43225;-81
2022/04/12 07:26:52;;;;;;;;;;;12.00;99.80;;;;;;4315738;33;43361;-81
2022/04/12 07:29:19;;;;;;;;;;;12.00;99.70;;;;;;4315841;33;44676;-81
2022/04/12 07:31:46;;;;;;;;;;;12.00;99.70;;;;;;4315582;33;44543;-81
2022/04/12 07:34:13;;;;;;;;;;;12.00;99.60;;;;;;4302609;33;44271;-81
2022/04/12 07:36:46;;;;;;;;;;;12.00;99.70;;;;;;4302630;33;43942;-80
2022/04/12 07:39:15;;;;;;;;;;;12.00;99.80;;;;;;4302540;33;43868;-81
2022/04/12 07:41:42;;;;;;;;;;;12.00;99.90;;;;;;4302633;33;44273;-80
2022/04/12 07:44:09;;;;;;;;;;;12.00;99.90;;;;;;4302375;33;45373;-80
2022/04/12 07:46:36;;;;;;;;;;;12.00;99.90;;;;;;4302859;33;43181;-80
2022/04/12 07:49:05;;;;;;;;;;;12.10;99.90;;;;;;4302611;33;43888;-80
2022/04/12 07:51:32;;;;;;;;;;;12.10;99.90;;;;;;4315945;33;43546;-80
2022/04/12 07:54:01;;;;;;;;;;;12.10;99.90;;;;;;4315633;33;43812;-79
2022/04/12 07:56:28;;;;;;;;;;;12.10;99.90;;;;;;4302494;33;42707;-79
2022/04/12 07:58:55;;;;;;;;;;;12.10;99.90;;;;;;4315692;33;42350;-80
2022/04/12 08:01:22;;;;;;;;;;;12.10;99.90;;;;;;4318830;33;44208;-79
2022/04/12 08:03:49;;;;;;;;;;;12.10;99.90;;;;;;4305956;33;43190;-79
2022/04/12 08:06:16;;;;;;;;;;;12.10;99.90;;;;;;4318972;33;43230;-79
2022/04/12 08:08:44;;;;;;;;;;;12.10;99.90;;;;;;4318473;33;43458;-79
2022/04/12 08:11:12;;;;;;;;;;;12.10;99.90;;;;;;4305496;33;44497;-79
2022/04/12 08:13:40;;;;;;;;;;;12.10;99.80;;;;;;4305362;33;44104;-79
2022/04/12 08:16:08;;;;;;;;;;;12.20;99.90;;;;;;4318619;33;44370;-79
2022/04/12 08:18:35;;;;;;;;;;;12.20;99.90;;;;;;4318275;33;44234;-79
2022/04/12 08:21:02;;;;;;;;;;;12.20;99.90;;;;;;4305651;33;44450;-79
2022/04/12 08:23:29;;;;;;;;;;;12.20;99.90;;;;;;4305259;33;42722;-79
2022/04/12 08:25:56;;;;;;;;;;;12.30;99.90;;;;;;4318262;33;43476;-79
2022/04/12 08:28:23;;;;;;;;;;;12.20;99.80;;;;;;4318098;33;42930;-79
2022/04/12 08:30:52;;;;;;;;;;;12.20;99.90;;;;;;4318751;33;43901;-79
2022/04/12 08:33:19;;;;;;;;;;;12.20;99.90;;;;;;4305118;33;42485;-79
2022/04/12 08:35:46;;;;;;;;;;;12.30;99.90;;;;;;4318418;33;43885;-79
2022/04/12 08:38:13;;;;;;;;;;;12.30;99.90;;;;;;4304886;33;44652;-79
2022/04/12 08:40:40;;;;;;;;;;;12.30;99.90;;;;;;4305291;33;42314;-79
2022/04/12 08:43:07;;;;;;;;;;;12.30;99.90;;;;;;4305090;33;44537;-79
2022/04/12 08:45:35;;;;;;;;;;;12.30;99.90;;;;;;4317971;33;44018;-79
2022/04/12 08:48:05;;;;;;;;;;;12.30;99.90;;;;;;4305010;33;44542;-79
2022/04/12 08:50:32;;;;;;;;;;;12.40;99.90;;;;;;4318267;33;43731;-79
2022/04/12 08:53:01;;;;;;;;;;;12.40;99.90;;;;;;4319095;33;20018;-79
2022/04/12 08:55:28;;;;;;;;;;;12.40;99.80;;;;;;4317711;33;43696;-79
2022/04/12 08:57:55;;;;;;;;;;;12.40;99.70;;;;;;4304516;33;44078;-79
2022/04/12 09:00:22;;;;;;;;;;;12.50;99.80;;;;;;4317802;33;42890;-79
2022/04/12 09:02:57;;;;;;;;;;;12.50;99.90;;;;;;4317861;33;43114;-79
2022/04/12 09:05:25;;;;;;;;;;;12.50;99.90;;;;;;4318048;33;44175;-79
2022/04/12 09:07:52;;;;;;;;;;;12.50;99.90;;;;;;4304951;33;43938;-79
2022/04/12 09:10:22;;;;;;;;;;;12.60;99.80;;;;;;4304211;33;43549;-80
2022/04/12 09:12:49;;;;;;;;;;;12.50;99.80;;;;;;4304229;33;43155;-79
2022/04/12 09:15:16;;;;;;;;;;;12.60;99.70;;;;;;4317988;33;44251;-79
2022/04/12 09:17:48;;;;;;;;;;;12.60;99.90;;;;;;4317519;33;43537;-79
2022/04/12 09:20:17;;;;;;;;;;;12.60;99.90;;;;;;4305069;33;43248;-79
2022/04/12 09:22:45;;;;;;;;;;;12.60;99.90;;;;;;4317753;33;43972;-79
2022/04/12 09:25:14;;;;;;;;;;;12.70;99.90;;;;;;4317745;33;45099;-79
2022/04/12 09:27:44;;;;;;;;;;;12.70;99.90;;;;;;4304337;33;43411;-79
2022/04/12 09:30:12;;;;;;;;;;;12.70;99.90;;;;;;4304822;33;44315;-79
2022/04/12 09:32:41;;;;;;;;;;;12.70;99.90;;;;;;4304640;33;45104;-79
2022/04/12 09:35:08;;;;;;;;;;;12.70;99.90;;;;;;4304561;33;45710;-79
2022/04/12 09:37:36;;;;;;;;;;;12.80;99.90;;;;;;4317202;33;43083;-79
2022/04/12 09:40:03;;;;;;;;;;;12.80;99.90;;;;;;4304650;33;43612;-79
2022/04/12 09:42:50;;;;;;;;;;;12.80;99.90;;;;;;4304421;33;44405;-78
2022/04/12 09:45:22;;;;;;;;;;;12.80;99.90;;;;;;4317078;33;42889;-79
2022/04/12 09:48:06;;;;;;;;;;;12.90;99.90;;;;;;4305099;33;44069;-79
2022/04/12 09:50:58;;;;;;;;;;;12.90;99.90;;;;;;4317526;33;46188;-79
2022/04/12 09:53:36;;;;;;;;;;;13.00;99.90;;;;;;4317276;33;42862;-79
2022/04/12 09:56:13;;;;;;;;;;;13.00;99.90;;;;;;4304393;33;44599;-79
2022/04/12 09:58:41;;;;;;;;;;;13.00;99.90;;;;;;4317463;33;43902;-79
2022/04/12 10:01:09;;;;;;;;;;;13.00;99.90;;;;;;4304035;33;43516;-80
2022/04/12 10:03:37;;;;;;;;;;;13.00;99.90;;;;;;4317006;33;43798;-79
2022/04/12 10:06:05;;;;;;;;;;;13.10;99.90;;;;;;4303953;33;44185;-79
2022/04/12 10:08:34;;;;;;;;;;;13.10;99.90;;;;;;4304216;33;44877;-79
2022/04/12 10:11:01;;;;;;;;;;;13.20;99.90;;;;;;4303569;33;45082;-79
2022/04/12 10:13:29;;;;;;;;;;;13.20;99.90;;;;;;4317136;33;43958;-79
2022/04/12 10:15:56;;;;;;;;;;;13.20;99.90;;;;;;4304207;33;45131;-79
2022/04/12 10:18:23;;;;;;;;;;;13.20;99.90;;;;;;4303720;33;43795;-79
2022/04/12 10:20:51;;;;;;;;;;;13.30;99.90;;;;;;4304034;33;44219;-80
2022/04/12 10:23:20;;;;;;;;;;;13.30;99.90;;;;;;4303728;33;43526;-80
2022/04/12 10:25:51;;;;;;;;;;;13.30;99.90;;;;;;4303513;33;42637;-80
2022/04/12 10:28:19;;;;;;;;;;;13.40;99.90;;;;;;4303863;33;43455;-80
2022/04/12 10:30:46;;;;;;;;;;;13.50;99.90;;;;;;4303298;33;44938;-81
2022/04/12 10:33:24;;;;;;;;;;;13.50;99.90;;;;;;4316653;33;44195;-81
2022/04/12 10:35:54;;;;;;;;;;;13.60;99.90;;;;;;4303957;33;44219;-81
2022/04/12 10:38:22;;;;;;;;;;;13.60;99.60;;;;;;4316650;33;44048;-82
2022/04/12 10:40:51;;;;;;;;;;;13.60;99.50;;;;;;4303492;33;43695;-82
2022/04/12 10:43:25;;;;;;;;;;;13.70;99.80;;;;;;4316751;33;45570;-82
2022/04/12 10:45:52;;;;;;;;;;;13.70;99.90;;;;;;4303695;33;43216;-82
2022/04/12 10:48:21;;;;;;;;;;;13.80;99.70;;;;;;4316336;33;45217;-82
2022/04/12 10:50:52;;;;;;;;;;;13.90;99.40;;;;;;4303129;33;43295;-82
2022/04/12 10:53:38;;;;;;;;;;;13.90;99.40;;;;;;4304166;33;20407;-80
2022/04/12 10:56:08;;;;;;;;;;;13.80;99.10;;;;;;4303008;33;44219;-80
2022/04/12 10:58:35;;;;;;;;;;;13.90;99.50;;;;;;4303266;33;43490;-80
2022/04/12 11:01:03;;;;;;;;;;;13.90;99.30;;;;;;4302890;33;43808;-79
2022/04/12 11:03:45;;;;;;;;;;;13.90;99.30;;;;;;4302796;33;42898;-80
2022/04/12 11:06:33;;;;;;;;;;;13.90;99.50;;;;;;4303689;33;43492;-80
2022/04/12 11:09:06;;;;;;;;;;;13.90;99.90;;;;;;4302974;33;42763;-80
2022/04/12 11:11:40;;;;;;;;;;;14.00;99.70;;;;;;4316409;33;45785;-80
2022/04/12 11:14:21;;;;;;;;;;;14.00;99.20;;;;;;4303422;33;43844;-80
2022/04/12 11:16:50;;;;;;;;;;;14.00;99.20;;;;;;4303227;33;44972;-80
2022/04/12 11:19:19;;;;;;;;;;;14.10;99.20;;;;;;4302726;33;46318;-80
2022/04/12 11:21:50;;;;;;;;;;;14.10;99.20;;;;;;4302819;33;44146;-80
2022/04/12 11:24:21;;;;;;;;;;;14.10;99.00;;;;;;4303956;33;20395;-80
2022/04/12 11:26:59;;;;;;;;;;;14.10;98.90;;;;;;4316158;33;44237;-80
2022/04/12 11:29:28;;;;;;;;;;;14.20;99.40;;;;;;4315770;33;44180;-80
2022/04/12 11:31:56;;;;;;;;;;;14.20;99.10;;;;;;4302934;33;44182;-80
2022/04/12 11:34:25;;;;;;;;;;;14.30;99.30;;;;;;4315647;33;44835;-80
2022/04/12 11:37:00;;;;;;;;;;;14.30;98.80;;;;;;4302525;33;41992;-80
2022/04/12 11:39:31;;;;;;;;;;;14.30;98.50;;;;;;4303490;33;43299;-80
2022/04/12 11:41:59;;;;;;;;;;;14.30;98.90;;;;;;4315818;33;43527;-80
2022/04/12 11:44:27;;;;;;;;;;;14.30;98.90;;;;;;4302461;33;44053;-80
2022/04/12 11:46:58;;;;;;;;;;;14.40;99.10;;;;;;4315578;33;43858;-80
2022/04/12 11:49:27;;;;;;;;;;;14.40;98.70;;;;;;4303021;33;44183;-79
2022/04/12 11:51:54;;;;;;;;;;;14.40;98.50;;;;;;4315665;33;42734;-80
2022/04/12 11:54:22;;;;;;;;;;;14.40;98.60;;;;;;4316690;33;20403;-80
2022/04/12 11:56:58;;;;;;;;;;;14.50;98.70;;;;;;4315614;33;43239;-80
2022/04/12 11:59:30;;;;;;;;;;;14.50;98.50;;;;;;4302734;33;42684;-80
2022/04/12 12:02:02;;;;;;;;;;;14.50;98.60;;;;;;4315642;33;44973;-80
2022/04/12 12:04:31;;;;;;;;;;;14.50;98.60;;;;;;4302809;33;43556;-81
2022/04/12 12:06:59;;;;;;;;;;;14.60;99.20;;;;;;4315550;33;43653;-81
2022/04/12 12:09:27;;;;;;;;;;;14.60;99.20;;;;;;4302591;33;43251;-81
2022/04/12 12:12:01;;;;;;;;;;;14.70;99.30;;;;;;4302855;33;44245;-80
2022/04/12 12:14:28;;;;;;;;;;;14.70;99.00;;;;;;4315797;33;43893;-80
2022/04/12 12:17:01;;;;;;;;;;;14.70;99.00;;;;;;4302738;33;44120;-80
2022/04/12 12:19:29;;;;;;;;;;;14.80;98.70;;;;;;4315575;33;43258;-80
2022/04/12 12:21:56;;;;;;;;;;;14.80;98.20;;;;;;4315785;33;43070;-80
2022/04/12 12:24:23;;;;;;;;;;;14.80;98.90;;;;;;4303059;33;20403;-79
2022/04/12 12:26:54;;;;;;;;;;;14.80;99.00;;;;;;4302076;33;43471;-80
2022/04/12 12:29:22;;;;;;;;;;;14.90;99.50;;;;;;4302975;33;46085;-80
2022/04/12 12:31:49;;;;;;;;;;;14.90;99.10;;;;;;4302470;33;44440;-80
2022/04/12 12:34:26;;;;;;;;;;;14.90;99.10;;;;;;4315261;33;44147;-79
2022/04/12 12:36:53;;;;;;;;;;;15.00;98.80;;;;;;4302108;33;42991;-79
2022/04/12 12:39:21;;;;;;;;;;;15.00;99.60;;;;;;4302146;33;42873;-80
2022/04/12 12:41:54;;;;;;;;;;;15.10;99.20;;;;;;4302534;33;43852;-79
2022/04/12 12:44:21;;;;;;;;;;;15.10;99.40;;;;;;4302242;33;44340;-79
2022/04/12 12:46:52;;;;;;;;;;;15.10;99.30;;;;;;4304817;33;43306;-79
2022/04/12 12:49:19;;;;;;;;;;;15.20;99.10;;;;;;4318296;33;43207;-79
2022/04/12 12:51:46;;;;;;;;;;;15.20;99.00;;;;;;4304744;33;43807;-80
2022/04/12 12:54:16;;;;;;;;;;;15.20;98.60;;;;;;4304847;33;43403;-80
2022/04/12 12:56:45;;;;;;;;;;;15.30;98.70;;;;;;4317903;33;44289;-79
2022/04/12 12:59:19;;;;;;;;;;;15.30;99.20;;;;;;4318240;33;44164;-79
2022/04/12 13:01:47;;;;;;;;;;;15.30;99.40;;;;;;4317919;33;46207;-79
2022/04/12 13:04:28;;;;;;;;;;;15.40;99.00;;;;;;4305044;33;42654;-79
2022/04/12 13:06:59;;;;;;;;;;;15.40;98.60;;;;;;4318127;33;42728;-80
2022/04/12 13:09:26;;;;;;;;;;;15.40;98.30;;;;;;4318082;33;45253;-79
2022/04/12 13:11:53;;;;;;;;;;;15.50;99.00;;;;;;4318156;33;44219;-80
2022/04/12 13:14:20;;;;;;;;;;;15.50;99.40;;;;;;4317843;33;43243;-80
2022/04/12 13:16:47;;;;;;;;;;;15.50;99.20;;;;;;4317869;33;42886;-80
2022/04/12 13:19:14;;;;;;;;;;;15.60;99.80;;;;;;4304851;33;44266;-81
2022/04/12 13:21:42;;;;;;;;;;;15.70;99.50;;;;;;4304940;33;41477;-80
2022/04/12 13:24:09;;;;;;;;;;;15.60;99.40;;;;;;4304443;33;43084;-80
2022/04/12 13:26:36;;;;;;;;;;;15.70;99.50;;;;;;4305479;33;19993;-80
2022/04/12 13:29:05;;;;;;;;;;;15.70;99.20;;;;;;4317744;33;44578;-79
2022/04/12 13:31:32;;;;;;;;;;;15.70;98.80;;;;;;4317272;33;43583;-79
2022/04/12 13:33:59;;;;;;;;;;;15.80;98.70;;;;;;4317169;33;45217;-80
2022/04/12 13:36:26;;;;;;;;;;;15.80;99.60;;;;;;4304317;33;42972;-80
2022/04/12 13:38:53;;;;;;;;;;;15.80;99.90;;;;;;4304548;33;43686;-80
2022/04/12 13:41:20;;;;;;;;;;;15.90;99.60;;;;;;4317079;33;43473;-81
2022/04/12 13:43:47;;;;;;;;;;;15.90;99.90;;;;;;4304300;33;43915;-80
2022/04/12 13:46:14;;;;;;;;;;;16.00;99.50;;;;;;4317157;33;42631;-80
2022/04/12 13:48:43;;;;;;;;;;;16.00;99.50;;;;;;4304364;33;43979;-80
2022/04/12 13:51:11;;;;;;;;;;;16.00;98.90;;;;;;4317144;33;44168;-80
2022/04/12 13:53:39;;;;;;;;;;;16.00;99.20;;;;;;4304231;33;43586;-80
2022/04/12 13:56:06;;;;;;;;;;;16.10;99.60;;;;;;4317027;33;42644;-80
2022/04/12 13:58:34;;;;;;;;;;;16.10;99.50;;;;;;4303518;33;43738;-80
2022/04/12 14:01:01;;;;;;;;;;;16.20;99.50;;;;;;4304145;33;43496;-80
2022/04/12 14:03:29;;;;;;;;;;;16.20;99.20;;;;;;4303863;33;44117;-80
2022/04/12 14:05:57;;;;;;;;;;;16.20;99.70;;;;;;4304386;33;45614;-80
2022/04/12 14:08:25;;;;;;;;;;;16.20;99.10;;;;;;4317214;33;43406;-80
2022/04/12 14:10:52;;;;;;;;;;;16.30;99.50;;;;;;4303976;33;43931;-80
2022/04/12 14:13:19;;;;;;;;;;;16.30;99.30;;;;;;4316717;33;43774;-79
2022/04/12 14:15:46;;;;;;;;;;;16.30;98.80;;;;;;4316680;33;43261;-80
2022/04/12 14:18:15;;;;;;;;;;;16.40;98.20;;;;;;4303658;33;44079;-79
2022/04/12 14:20:42;;;;;;;;;;;16.40;98.50;;;;;;4303438;33;44733;-79
2022/04/12 14:23:09;;;;;;;;;;;16.40;98.00;;;;;;4303643;33;44891;-79
2022/04/12 14:25:36;;;;;;;;;;;16.40;98.10;;;;;;4303734;33;43536;-79